createdAt,value
2023-09-12T00:00:54.682Z,15.89
2023-09-12T00:03:34.038Z,15.89
2023-09-12T00:06:03.158Z,15.88
2023-09-12T00:08:31.562Z,15.85
2023-09-12T00:11:13.565Z,15.83
2023-09-12T00:13:42.614Z,15.80
2023-09-12T00:16:12.251Z,15.76
2023-09-12T00:18:42.046Z,15.71
2023-09-12T00:21:10.722Z,15.65
2023-09-12T00:23:39.151Z,15.56
2023-09-12T00:26:07.546Z,15.50
2023-09-12T00:28:36.366Z,15.42
2023-09-12T00:31:04.500Z,15.36
2023-09-12T00:33:33.362Z,15.29
2023-09-12T00:36:01.538Z,15.24
2023-09-12T00:38:31.274Z,15.21
2023-09-12T00:40:59.659Z,15.20
2023-09-12T00:43:27.949Z,15.20
2023-09-12T00:45:56.662Z,15.19
2023-09-12T00:48:25.303Z,15.17
2023-09-12T00:50:54.513Z,15.15
2023-09-12T00:53:23.100Z,15.13
2023-09-12T00:55:57.673Z,15.10
2023-09-12T00:58:26.661Z,15.07
2023-09-12T01:00:55.315Z,15.03
2023-09-12T01:03:23.850Z,14.97
2023-09-12T01:05:52.962Z,14.92
2023-09-12T01:08:21.556Z,14.87
2023-09-12T01:10:51.063Z,14.82
2023-09-12T01:13:19.394Z,14.78
2023-09-12T01:15:47.925Z,14.75
2023-09-12T01:18:16.341Z,14.74
2023-09-12T01:21:00.799Z,14.72
2023-09-12T01:23:55.161Z,14.71
2023-09-12T01:26:59.105Z,14.69
2023-09-12T01:29:27.631Z,14.64
2023-09-12T01:31:56.655Z,14.59
2023-09-12T01:34:24.853Z,14.55
2023-09-12T01:36:52.911Z,14.50
2023-09-12T01:39:21.514Z,14.48
2023-09-12T01:41:51.293Z,14.43
2023-09-12T01:44:20.229Z,14.40
2023-09-12T01:46:51.223Z,14.36
2023-09-12T01:49:20.937Z,14.34
2023-09-12T01:51:49.531Z,14.28
2023-09-12T01:54:18.648Z,14.23
2023-09-12T01:56:47.314Z,14.20
2023-09-12T01:59:15.922Z,14.17
2023-09-12T02:01:44.527Z,14.13
2023-09-12T02:04:12.755Z,14.09
2023-09-12T02:06:41.154Z,14.05
2023-09-12T02:09:09.727Z,14.00
2023-09-12T02:11:38.201Z,13.97
2023-09-12T02:14:06.689Z,13.96
2023-09-12T02:16:38.985Z,13.94
2023-09-12T02:19:09.121Z,13.90
2023-09-12T02:21:37.751Z,13.87
2023-09-12T02:24:06.790Z,13.82
2023-09-12T02:26:37.604Z,13.79
2023-09-12T02:29:07.425Z,13.76
2023-09-12T02:31:35.809Z,13.70
2023-09-12T02:34:04.130Z,13.65
2023-09-12T02:36:32.901Z,13.61
2023-09-12T02:39:02.180Z,13.56
2023-09-12T02:41:30.843Z,13.53
2023-09-12T02:44:00.263Z,13.50
2023-09-12T02:46:28.755Z,13.46
2023-09-12T02:48:57.057Z,13.44
2023-09-12T02:51:26.879Z,13.43
2023-09-12T02:53:55.206Z,13.44
2023-09-12T02:56:23.995Z,13.46
2023-09-12T02:58:52.372Z,13.44
2023-09-12T03:01:21.756Z,13.42
2023-09-12T03:03:51.507Z,13.38
2023-09-12T03:06:19.973Z,13.34
2023-09-12T03:08:49.409Z,13.31
2023-09-12T03:11:17.858Z,13.28
2023-09-12T03:13:46.337Z,13.26
2023-09-12T03:16:15.341Z,13.25
2023-09-12T03:18:44.033Z,13.24
2023-09-12T03:21:12.647Z,13.23
2023-09-12T03:23:40.923Z,13.24
2023-09-12T03:26:09.178Z,13.27
2023-09-12T03:28:38.023Z,13.30
2023-09-12T03:31:13.781Z,13.34
2023-09-12T03:33:43.109Z,13.38
2023-09-12T03:36:11.457Z,13.41
2023-09-12T03:38:39.597Z,13.40
2023-09-12T03:41:08.353Z,13.39
2023-09-12T03:43:37.959Z,13.38
2023-09-12T03:46:06.556Z,13.34
2023-09-12T03:48:37.842Z,13.32
2023-09-12T03:51:06.911Z,13.30
2023-09-12T03:53:35.105Z,13.30
2023-09-12T03:56:03.392Z,13.30
2023-09-12T03:58:31.648Z,13.32
2023-09-12T04:01:00.259Z,13.35
2023-09-12T04:03:28.995Z,13.39
2023-09-12T04:05:57.576Z,13.44
2023-09-12T04:08:25.999Z,13.49
2023-09-12T04:10:54.330Z,13.56
2023-09-12T04:13:22.848Z,13.63
2023-09-12T04:15:51.419Z,13.71
2023-09-12T04:18:20.271Z,13.78
2023-09-12T04:20:48.878Z,13.83
2023-09-12T04:23:17.482Z,13.89
2023-09-12T04:25:47.562Z,13.97
2023-09-12T04:28:16.510Z,14.05
2023-09-12T04:30:47.314Z,14.10
2023-09-12T04:33:16.570Z,14.17
2023-09-12T04:35:45.020Z,14.23
2023-09-12T04:38:13.287Z,14.29
2023-09-12T04:40:41.757Z,14.37
2023-09-12T04:43:09.937Z,14.41
2023-09-12T04:45:38.592Z,14.46
2023-09-12T04:48:07.435Z,14.52
2023-09-12T04:50:41.421Z,14.60
2023-09-12T04:53:09.827Z,14.71
2023-09-12T04:55:38.962Z,14.83
2023-09-12T04:58:07.499Z,14.93
2023-09-12T05:00:35.620Z,15.02
2023-09-12T05:03:05.209Z,15.11
2023-09-12T05:05:36.265Z,15.24
2023-09-12T05:08:05.006Z,15.35
2023-09-12T05:10:33.636Z,15.50
2023-09-12T05:13:02.246Z,15.70
2023-09-12T05:15:30.572Z,15.89
2023-09-12T05:17:58.866Z,16.11
2023-09-12T05:20:26.993Z,16.30
2023-09-12T05:22:55.374Z,16.50
2023-09-12T05:25:23.756Z,16.72
2023-09-12T05:27:51.972Z,16.96
2023-09-12T05:30:20.270Z,17.23
2023-09-12T05:32:48.571Z,17.47
2023-09-12T05:35:22.000Z,17.70
2023-09-12T05:37:52.278Z,17.97
2023-09-12T05:40:20.653Z,18.19
2023-09-12T05:42:49.340Z,18.42
2023-09-12T05:45:17.816Z,18.62
2023-09-12T05:47:46.162Z,18.77
2023-09-12T05:50:14.524Z,18.94
2023-09-12T05:52:43.897Z,19.14
2023-09-12T05:55:13.815Z,19.37
2023-09-12T05:57:42.193Z,19.57
2023-09-12T06:00:13.168Z,19.75
2023-09-12T06:02:43.678Z,19.95
2023-09-12T06:05:12.086Z,20.14
2023-09-12T06:07:42.177Z,20.29
2023-09-12T06:10:10.999Z,20.52
2023-09-12T06:12:39.634Z,20.80
2023-09-12T06:15:08.432Z,21.10
2023-09-12T06:17:36.867Z,21.34
2023-09-12T06:20:07.970Z,21.63
2023-09-12T06:22:37.277Z,21.86
2023-09-12T06:25:07.271Z,22.04
2023-09-12T06:27:35.674Z,22.24
2023-09-12T06:30:04.381Z,22.40
2023-09-12T06:32:32.590Z,22.57
2023-09-12T06:35:00.860Z,22.66
2023-09-12T06:37:29.216Z,22.84
2023-09-12T06:39:57.716Z,22.99
2023-09-12T06:42:25.966Z,23.12
2023-09-12T06:44:54.754Z,23.27
2023-09-12T06:47:23.197Z,23.48
2023-09-12T06:49:55.338Z,23.68
2023-09-12T06:52:24.888Z,23.85
2023-09-12T06:54:53.313Z,23.96
2023-09-12T06:57:21.612Z,24.10
2023-09-12T06:59:50.656Z,24.32
2023-09-12T07:02:19.988Z,24.52
2023-09-12T07:04:48.254Z,24.68
2023-09-12T07:07:16.383Z,24.94
2023-09-12T07:09:44.693Z,25.18
2023-09-12T07:12:12.932Z,25.33
2023-09-12T07:14:41.077Z,25.47
2023-09-12T07:17:09.718Z,25.64
2023-09-12T07:19:38.033Z,25.79
2023-09-12T07:22:06.380Z,26.01
2023-09-12T07:24:34.596Z,26.23
2023-09-12T07:27:03.071Z,26.44
2023-09-12T07:29:31.452Z,26.55
2023-09-12T07:32:01.124Z,26.64
2023-09-12T07:34:29.746Z,26.82
2023-09-12T07:36:57.861Z,27.08
2023-09-12T07:39:26.342Z,27.25
2023-09-12T07:41:54.855Z,27.41
2023-09-12T07:44:23.070Z,27.37
2023-09-12T07:46:51.490Z,27.45
2023-09-12T07:49:19.932Z,27.44
2023-09-12T07:51:48.638Z,27.66
2023-09-12T07:54:19.264Z,28.04
2023-09-12T07:56:47.632Z,28.38
2023-09-12T07:59:16.155Z,28.63
2023-09-12T08:01:44.634Z,28.89
2023-09-12T08:04:13.233Z,28.85
2023-09-12T08:06:56.952Z,28.81
2023-09-12T08:09:46.652Z,28.88
2023-09-12T08:12:15.162Z,28.95
2023-09-12T08:14:43.679Z,29.03
2023-09-12T08:17:12.269Z,29.06
2023-09-12T08:19:40.673Z,29.08
2023-09-12T08:22:09.836Z,29.05
2023-09-12T08:24:38.648Z,29.25
2023-09-12T08:27:07.564Z,29.49
2023-09-12T08:29:36.163Z,29.54
2023-09-12T08:32:04.731Z,29.36
2023-09-12T08:34:34.199Z,29.31
2023-09-12T08:37:02.301Z,29.39
2023-09-12T08:39:40.955Z,29.67
2023-09-12T08:42:12.536Z,30.05
2023-09-12T08:44:41.970Z,30.34
2023-09-12T08:47:13.683Z,30.47
2023-09-12T08:49:43.819Z,30.41
2023-09-12T08:52:12.155Z,30.31
2023-09-12T08:54:40.714Z,30.38
2023-09-12T08:57:11.928Z,30.47
2023-09-12T08:59:40.441Z,30.64
2023-09-12T09:02:10.071Z,30.87
2023-09-12T09:04:40.654Z,31.04
2023-09-12T09:07:10.355Z,30.98
2023-09-12T09:09:38.951Z,30.93
2023-09-12T09:12:11.994Z,31.15
2023-09-12T09:14:40.819Z,31.53
2023-09-12T09:17:21.095Z,31.65
2023-09-12T09:19:57.641Z,31.91
2023-09-12T09:22:25.848Z,31.82
2023-09-12T09:25:10.510Z,31.65
2023-09-12T09:27:38.646Z,31.62
2023-09-12T09:30:06.997Z,31.58
2023-09-12T09:32:35.155Z,31.69
2023-09-12T09:35:03.398Z,31.64
2023-09-12T09:37:31.670Z,31.53
2023-09-12T09:39:59.782Z,31.54
2023-09-12T09:42:30.250Z,31.55
2023-09-12T09:44:58.722Z,31.77
2023-09-12T09:47:26.853Z,31.94
2023-09-12T09:49:58.796Z,32.30
2023-09-12T09:52:30.172Z,32.51
2023-09-12T09:54:58.612Z,32.42
2023-09-12T09:57:27.614Z,32.61
2023-09-12T09:59:56.043Z,32.99
2023-09-12T10:02:27.319Z,33.17
2023-09-12T10:07:29.067Z,32.82
2023-09-12T10:09:59.012Z,32.58
2023-09-12T10:12:30.264Z,32.48
2023-09-12T10:15:02.588Z,32.66
2023-09-12T10:17:37.746Z,32.87
2023-09-12T10:20:10.586Z,33.04
2023-09-12T10:22:41.894Z,33.14
2023-09-12T10:25:10.874Z,33.05
2023-09-12T10:27:39.039Z,33.12
2023-09-12T10:30:08.628Z,33.11
2023-09-12T10:32:37.898Z,33.12
2023-09-12T10:35:07.319Z,33.22
2023-09-12T10:37:37.194Z,33.42
2023-09-12T10:40:07.560Z,33.74
2023-09-12T10:42:38.318Z,33.91
2023-09-12T10:45:08.381Z,34.01
2023-09-12T10:47:37.521Z,34.24
2023-09-12T10:50:06.133Z,34.37
2023-09-12T10:52:36.885Z,34.30
2023-09-12T10:55:05.827Z,34.27
2023-09-12T10:57:34.180Z,34.37
2023-09-12T11:00:03.051Z,34.25
2023-09-12T11:02:33.257Z,34.06
2023-09-12T11:05:06.068Z,34.32
2023-09-12T11:07:37.070Z,34.65
2023-09-12T11:10:19.634Z,34.78
2023-09-12T11:12:50.269Z,34.98
2023-09-12T11:15:19.915Z,34.74
2023-09-12T11:17:49.100Z,34.74
2023-09-12T11:20:18.377Z,35.14
2023-09-12T11:22:47.420Z,35.39
2023-09-12T11:25:28.553Z,35.40
2023-09-12T11:27:56.849Z,35.58
2023-09-12T11:30:36.049Z,35.57
2023-09-12T11:33:05.919Z,35.67
2023-09-12T11:35:37.765Z,36.06
2023-09-12T11:38:10.816Z,36.49
2023-09-12T11:40:38.992Z,36.93
2023-09-12T11:43:07.497Z,37.26
2023-09-12T11:45:36.378Z,37.50
2023-09-12T11:48:04.848Z,37.72
2023-09-12T11:50:34.369Z,37.75
2023-09-12T11:53:04.717Z,37.65
2023-09-12T11:55:34.103Z,37.31
2023-09-12T11:58:02.469Z,37.31
2023-09-12T12:00:30.956Z,37.53
2023-09-12T12:02:59.676Z,37.56
2023-09-12T12:05:28.091Z,37.58
2023-09-12T12:08:07.038Z,37.88
2023-09-12T12:10:44.954Z,38.26
2023-09-12T12:13:13.758Z,38.56
2023-09-12T12:15:41.976Z,38.84
2023-09-12T12:18:10.459Z,38.99
2023-09-12T12:20:39.000Z,39.28
2023-09-12T12:23:07.378Z,39.60
2023-09-12T12:25:36.179Z,39.84
2023-09-12T12:28:05.014Z,40.11
2023-09-12T12:30:34.890Z,40.43
2023-09-12T12:33:56.929Z,40.63
2023-09-12T12:36:03.744Z,40.91
2023-09-12T12:38:37.512Z,41.19
2023-09-12T12:41:07.200Z,41.33
2023-09-12T12:43:35.376Z,41.42
2023-09-12T12:46:03.942Z,41.49
2023-09-12T12:48:33.361Z,41.52
2023-09-12T12:51:13.435Z,41.55
2023-09-12T12:53:52.044Z,41.40
2023-09-12T12:56:30.885Z,41.35
2023-09-12T12:59:04.498Z,41.40
2023-09-12T13:01:34.689Z,41.50
2023-09-12T13:04:03.499Z,41.44
2023-09-12T13:06:36.981Z,41.26
2023-09-12T13:09:07.038Z,41.37
2023-09-12T13:11:36.254Z,41.40
2023-09-12T13:14:11.204Z,41.45
2023-09-12T13:16:41.870Z,41.35
2023-09-12T13:19:12.349Z,41.43
2023-09-12T13:21:40.878Z,41.69
2023-09-12T13:24:09.374Z,41.93
2023-09-12T13:26:38.018Z,42.26
2023-09-12T13:29:06.538Z,42.51
2023-09-12T13:31:35.048Z,42.77
2023-09-12T13:34:04.342Z,43.10
2023-09-12T13:36:32.844Z,43.35
2023-09-12T13:39:01.274Z,43.58
2023-09-12T13:41:29.898Z,43.89
2023-09-12T13:43:58.181Z,44.27
2023-09-12T13:46:26.547Z,44.64
2023-09-12T13:48:54.872Z,45.02
2023-09-12T13:51:23.424Z,45.31
2023-09-12T13:53:51.985Z,45.45
2023-09-12T13:56:23.570Z,45.63
2023-09-12T13:58:52.084Z,45.67
2023-09-12T14:01:31.724Z,45.69
2023-09-12T14:04:04.346Z,45.27
2023-09-12T14:06:34.837Z,44.91
2023-09-12T14:09:03.377Z,44.86
2023-09-12T14:11:35.925Z,44.97
2023-09-12T14:16:36.848Z,45.05
2023-09-12T14:19:05.433Z,45.30
2023-09-12T14:21:35.867Z,45.06
2023-09-12T14:24:05.977Z,45.00
2023-09-12T14:26:34.932Z,45.16
2023-09-12T14:29:03.617Z,45.25
2023-09-12T14:31:32.204Z,45.31
2023-09-12T14:34:00.669Z,45.42
2023-09-12T14:36:29.016Z,45.27
2023-09-12T14:38:57.390Z,45.16
2023-09-12T14:41:25.790Z,45.17
2023-09-12T14:43:54.130Z,45.27
2023-09-12T14:46:22.631Z,45.37
2023-09-12T14:49:00.462Z,45.30
2023-09-12T14:51:33.439Z,45.17
2023-09-12T14:54:03.345Z,45.15
2023-09-12T14:56:32.639Z,45.04
2023-09-12T14:59:01.936Z,44.67
2023-09-12T15:01:30.624Z,44.00
2023-09-12T15:03:59.497Z,43.59
2023-09-12T15:06:28.508Z,43.33
2023-09-12T15:08:57.612Z,43.16
2023-09-12T15:11:25.848Z,42.94
2023-09-12T15:13:54.130Z,42.74
2023-09-12T15:16:22.657Z,42.65
2023-09-12T15:18:51.857Z,42.59
2023-09-12T15:21:20.194Z,42.40
2023-09-12T15:23:48.368Z,42.21
2023-09-12T15:26:17.213Z,41.99
2023-09-12T15:28:46.054Z,41.75
2023-09-12T15:31:14.646Z,41.52
2023-09-12T15:33:43.411Z,41.27
2023-09-12T15:36:11.966Z,40.97
2023-09-12T15:38:40.394Z,40.61
2023-09-12T15:41:09.236Z,40.23
2023-09-12T15:43:37.787Z,39.76
2023-09-12T15:46:06.273Z,39.31
2023-09-12T15:48:34.787Z,38.75
2023-09-12T15:51:05.598Z,37.95
2023-09-12T15:53:33.954Z,37.21
2023-09-12T15:56:02.332Z,36.60
2023-09-12T15:58:30.718Z,36.07
2023-09-12T16:01:01.091Z,35.48
2023-09-12T16:03:29.887Z,34.93
2023-09-12T16:05:58.418Z,34.38
2023-09-12T16:08:28.130Z,33.87
2023-09-12T16:10:56.473Z,33.41
2023-09-12T16:13:24.790Z,32.97
2023-09-12T16:15:53.229Z,32.55
2023-09-12T16:18:21.760Z,32.18
2023-09-12T16:20:50.177Z,31.79
2023-09-12T16:23:18.619Z,31.39
2023-09-12T16:25:47.553Z,31.05
2023-09-12T16:28:15.797Z,30.73
2023-09-12T16:30:45.767Z,30.41
2023-09-12T16:33:14.228Z,30.10
2023-09-12T16:35:42.772Z,29.77
2023-09-12T16:38:11.256Z,29.46
2023-09-12T16:40:40.257Z,29.17
2023-09-12T16:43:08.635Z,28.86
2023-09-12T16:45:37.839Z,28.58
2023-09-12T16:48:07.696Z,28.31
2023-09-12T16:50:36.022Z,28.04
2023-09-12T16:53:05.583Z,27.80
2023-09-12T16:55:34.018Z,27.58
2023-09-12T16:58:03.780Z,27.39
2023-09-12T17:00:32.154Z,27.20
2023-09-12T17:03:00.735Z,27.01
2023-09-12T17:05:29.482Z,26.80
2023-09-12T17:07:57.978Z,26.63
2023-09-12T17:10:26.551Z,26.47
2023-09-12T17:12:54.859Z,26.30
2023-09-12T17:15:23.821Z,26.15
2023-09-12T17:17:52.320Z,25.99
2023-09-12T17:20:20.836Z,25.85
2023-09-12T17:22:49.090Z,25.69
2023-09-12T17:25:17.661Z,25.54
2023-09-12T17:27:46.646Z,25.40
2023-09-12T17:30:15.025Z,25.24
2023-09-12T17:32:43.952Z,25.08
2023-09-12T17:35:12.403Z,24.94
2023-09-12T17:37:40.979Z,24.80
2023-09-12T17:40:09.839Z,24.68
2023-09-12T17:42:38.303Z,24.57
2023-09-12T17:45:07.149Z,24.46
2023-09-12T17:47:36.370Z,24.34
2023-09-12T17:50:05.139Z,24.24
2023-09-12T17:52:33.519Z,24.14
2023-09-12T17:55:02.055Z,24.04
2023-09-12T17:57:30.613Z,23.92
2023-09-12T17:59:59.073Z,23.80
2023-09-12T18:02:27.588Z,23.71
2023-09-12T18:04:56.070Z,23.63
2023-09-12T18:07:25.852Z,23.56
2023-09-12T18:09:54.355Z,23.47
2023-09-12T18:12:22.625Z,23.39
2023-09-12T18:14:50.787Z,23.32
2023-09-12T18:17:19.072Z,23.24
2023-09-12T18:19:47.447Z,23.15
2023-09-12T18:22:15.825Z,23.07
2023-09-12T18:24:44.229Z,23.00
2023-09-12T18:27:12.724Z,22.95
2023-09-12T18:29:41.172Z,22.89
2023-09-12T18:32:09.661Z,22.82
2023-09-12T18:34:38.039Z,22.77
2023-09-12T18:37:08.095Z,22.72
2023-09-12T18:39:36.771Z,22.65
2023-09-12T18:42:05.271Z,22.58
2023-09-12T18:44:35.039Z,22.52
2023-09-12T18:47:03.589Z,22.46
2023-09-12T18:49:32.119Z,22.40
2023-09-12T18:52:00.676Z,22.35
2023-09-12T18:54:30.038Z,22.30
2023-09-12T18:56:59.710Z,22.25
2023-09-12T18:59:27.981Z,22.23
2023-09-12T19:01:56.252Z,22.17
2023-09-12T19:04:25.648Z,22.11
2023-09-12T19:06:54.348Z,22.05
2023-09-12T19:09:23.349Z,22.00
2023-09-12T19:11:52.663Z,21.94
2023-09-12T19:14:21.031Z,21.89
2023-09-12T19:16:54.634Z,21.82
2023-09-12T19:19:23.229Z,21.74
2023-09-12T19:21:52.128Z,21.68
2023-09-12T19:24:20.493Z,21.60
2023-09-12T19:26:48.922Z,21.53
2023-09-12T19:29:18.186Z,21.45
2023-09-12T19:31:46.601Z,21.38
2023-09-12T19:34:15.213Z,21.29
2023-09-12T19:36:43.867Z,21.21
2023-09-12T19:39:12.614Z,21.14
2023-09-12T19:41:40.992Z,21.08
2023-09-12T19:44:09.324Z,21.02
2023-09-12T19:46:41.263Z,20.96
2023-09-12T19:49:10.360Z,20.89
2023-09-12T19:51:38.726Z,20.83
2023-09-12T19:54:07.850Z,20.75
2023-09-12T19:56:36.091Z,20.68
2023-09-12T19:59:04.687Z,20.61
2023-09-12T20:01:32.975Z,20.55
2023-09-12T20:04:01.999Z,20.49
2023-09-12T20:06:30.610Z,20.43
2023-09-12T20:08:59.419Z,20.38
2023-09-12T20:11:27.802Z,20.34
2023-09-12T20:13:56.182Z,20.28
2023-09-12T20:16:24.500Z,20.23
2023-09-12T20:18:53.076Z,20.20
2023-09-12T20:21:22.141Z,20.17
2023-09-12T20:23:50.573Z,20.13
2023-09-12T20:26:19.133Z,20.09
2023-09-12T20:28:47.493Z,20.03
2023-09-12T20:31:15.833Z,19.98
2023-09-12T20:33:45.900Z,19.93
2023-09-12T20:36:14.676Z,19.86
2023-09-12T20:38:47.071Z,19.81
2023-09-12T20:41:15.377Z,19.76
2023-09-12T20:43:44.136Z,19.71
2023-09-12T20:46:12.681Z,19.67
2023-09-12T20:48:41.203Z,19.61
2023-09-12T20:51:10.819Z,19.54
2023-09-12T20:53:39.418Z,19.50
2023-09-12T20:56:07.964Z,19.44
2023-09-12T20:58:37.571Z,19.40
2023-09-12T21:01:06.639Z,19.35
2023-09-12T21:03:35.110Z,19.29
2023-09-12T21:06:03.842Z,19.23
2023-09-12T21:08:32.844Z,19.18
2023-09-12T21:11:01.224Z,19.13
2023-09-12T21:13:29.700Z,19.10
2023-09-12T21:15:58.460Z,19.06
2023-09-12T21:18:26.911Z,19.03
2023-09-12T21:20:55.354Z,19.00
2023-09-12T21:23:23.939Z,18.97
2023-09-12T21:25:52.261Z,18.94
2023-09-12T21:28:20.692Z,18.91
2023-09-12T21:30:49.892Z,18.88
2023-09-12T21:33:18.723Z,18.85
2023-09-12T21:35:46.862Z,18.83
2023-09-12T21:38:15.188Z,18.80
2023-09-12T21:40:43.301Z,18.77
2023-09-12T21:43:11.575Z,18.76
2023-09-12T21:45:39.810Z,18.75
2023-09-12T21:48:08.098Z,18.74
2023-09-12T21:50:37.627Z,18.74
2023-09-12T21:53:05.934Z,18.73
2023-09-12T21:55:36.917Z,18.73
2023-09-12T21:58:05.821Z,18.71
2023-09-12T22:00:35.993Z,18.71
2023-09-12T22:03:05.493Z,18.71
2023-09-12T22:05:36.557Z,18.71
2023-09-12T22:08:06.550Z,18.72
2023-09-12T22:10:37.992Z,18.72
2023-09-12T22:13:06.872Z,18.72
2023-09-12T22:15:35.219Z,18.71
2023-09-12T22:18:03.837Z,18.70
2023-09-12T22:20:32.660Z,18.69
2023-09-12T22:23:01.020Z,18.68
2023-09-12T22:25:29.386Z,18.66
2023-09-12T22:27:57.650Z,18.65
2023-09-12T22:30:25.853Z,18.63
2023-09-12T22:32:54.359Z,18.62
2023-09-12T22:35:22.487Z,18.59
2023-09-12T22:37:50.590Z,18.57
2023-09-12T22:40:18.739Z,18.53
2023-09-12T22:42:46.861Z,18.52
2023-09-12T22:45:14.976Z,18.51
2023-09-12T22:47:43.277Z,18.51
2023-09-12T22:50:11.696Z,18.51
2023-09-12T22:52:40.074Z,18.49
2023-09-12T22:55:08.607Z,18.46
2023-09-12T22:57:37.976Z,18.43
2023-09-12T23:00:08.758Z,18.38
2023-09-12T23:02:37.582Z,18.32
2023-09-12T23:05:06.429Z,18.25
2023-09-12T23:07:35.666Z,18.19
2023-09-12T23:10:05.188Z,18.12
2023-09-12T23:12:35.140Z,18.06
2023-09-12T23:15:07.900Z,17.99
2023-09-12T23:17:37.059Z,17.95
2023-09-12T23:20:13.250Z,17.92
2023-09-12T23:22:47.871Z,17.90
2023-09-12T23:25:17.407Z,17.89
2023-09-12T23:27:46.262Z,17.88
2023-09-12T23:30:14.850Z,17.87
2023-09-12T23:32:43.486Z,17.84
2023-09-12T23:35:11.833Z,17.81
2023-09-12T23:37:40.398Z,17.77
2023-09-12T23:40:09.133Z,17.74
2023-09-12T23:42:38.106Z,17.70
2023-09-12T23:45:06.714Z,17.66
2023-09-12T23:47:35.212Z,17.64
2023-09-12T23:50:04.037Z,17.62
2023-09-12T23:52:32.429Z,17.61
2023-09-12T23:55:00.626Z,17.58
2023-09-12T23:57:28.872Z,17.55
2023-09-12T23:59:57.078Z,17.51
